| time (UTC) | temp C | wind direction | speed KPH | gust KPH | rain 1hr cm | rain 24hr cm | rain mn cm | humidity % | barometer mb |
| 20260906200815 | 29 | 173 | 6.4 | 11.3 | 0.00 | 1.04 | 1.04 | 64 | 1003.4 |
| 20260906200311 | 30 | 164 | 4.8 | 9.7 | 0.00 | 1.04 | 1.04 | 64 | 1003.5 |
| 20260906195806 | 30 | 205 | 6.4 | 12.9 | 0.00 | 1.04 | 1.04 | 64 | 1003.8 |
| 20260906195306 | 30 | 187 | 3.2 | 11.3 | 0.00 | 1.04 | 1.04 | 63 | 1003.5 |
| 20260906194758 | 30 | 167 | 3.2 | 14.5 | 0.00 | 1.04 | 1.04 | 62 | 1003.8 |
| 20260906194254 | 30 | 118 | 4.8 | 9.7 | 0.00 | 1.04 | 1.04 | 60 | 1003.5 |
| 20260906193748 | 30 | 214 | 8.0 | 12.9 | 0.00 | 1.04 | 1.04 | 60 | 1003.5 |
| 20260906193244 | 30 | 228 | 3.2 | 11.3 | 0.00 | 1.04 | 1.04 | 61 | 1003.5 |
| 20260906192740 | 31 | 200 | 8.0 | 12.9 | 0.00 | 1.04 | 1.04 | 60 | 1003.5 |
| 20260906192239 | 30 | 214 | 3.2 | 11.3 | 0.00 | 1.04 | 1.04 | 60 | 1003.5 |
| 20260906191738 | 30 | 204 | 4.8 | 20.9 | 0.00 | 1.04 | 1.04 | 62 | 1003.4 |
| 20260906191233 | 30 | 211 | 8.0 | 12.9 | 0.00 | 1.04 | 1.04 | 59 | 1003.3 |
| 20260906190727 | 30 | 236 | 9.7 | 14.5 | 0.00 | 1.04 | 1.04 | 59 | 1003.6 |
| 20260906190222 | 31 | 183 | 11.3 | 24.1 | 0.00 | 1.04 | 1.04 | 59 | 1003.5 |
| 20260906185721 | 30 | 233 | 6.4 | 17.7 | 0.00 | 1.04 | 1.04 | 60 | 1003.5 |
| 20260906185220 | 30 | 241 | 9.7 | 20.9 | 0.00 | 1.04 | 1.04 | 59 | 1003.5 |
| 20260906184715 | 30 | 233 | 6.4 | 17.7 | 0.00 | 1.04 | 1.04 | 59 | 1003.3 |
| 20260906184210 | 30 | 219 | 6.4 | 11.3 | 0.00 | 1.04 | 1.04 | 61 | 1003.4 |
| 20260906183706 | 30 | 231 | 9.7 | 16.1 | 0.00 | 1.04 | 1.04 | 60 | 1003.6 |
| 20260906183202 | 31 | 213 | 9.7 | 12.9 | 0.00 | 1.04 | 1.04 | 58 | 1003.8 |
| 20260906182702 | 31 | 169 | 11.3 | 22.5 | 0.00 | 1.04 | 1.04 | 57 | 1003.8 |
| 20260906182158 | 31 | 242 | 6.4 | 14.5 | 0.00 | 1.04 | 1.04 | 58 | 1003.8 |
| 20260906181653 | 30 | 198 | 12.9 | 16.1 | 0.00 | 1.04 | 1.04 | 59 | 1003.8 |
| 20260906181149 | 30 | 204 | 12.9 | 25.7 | 0.00 | 1.04 | 1.04 | 60 | 1003.8 |
| 20260906180644 | 30 | 193 | 9.7 | 14.5 | 0.00 | 1.04 | 1.04 | 60 | 1003.6 |
| 20260906180139 | 30 | 231 | 6.4 | 22.5 | 0.00 | 1.04 | 1.04 | 59 | 1003.8 |
| 20260906175637 | 30 | 172 | 8.0 | 14.5 | 0.00 | 1.04 | 1.04 | 58 | 1003.8 |
| 20260906175132 | 30 | 209 | 14.5 | 22.5 | 0.00 | 1.04 | 1.04 | 59 | 1003.6 |
| 20260906174630 | 30 | 209 | 4.8 | 17.7 | 0.00 | 1.04 | 1.04 | 58 | 1003.8 |
| 20260906174125 | 30 | 218 | 3.2 | 9.7 | 0.00 | 1.04 | 1.04 | 59 | 1003.6 |
| 20260906173620 | 30 | 215 | 6.4 | 17.7 | 0.00 | 1.04 | 1.04 | 57 | 1003.5 |
| 20260906173116 | 30 | 248 | 8.0 | 17.7 | 0.00 | 1.04 | 1.04 | 59 | 1003.8 |
| 20260906172615 | 30 | 135 | 9.7 | 14.5 | 0.00 | 1.04 | 1.04 | 57 | 1003.5 |
| 20260906172111 | 30 | 181 | 12.9 | 16.1 | 0.00 | 1.04 | 1.04 | 57 | 1003.5 |
| 20260906171610 | 29 | 213 | 9.7 | 14.5 | 0.00 | 1.04 | 1.04 | 57 | 1003.4 |
| 20260906171107 | 29 | 144 | 6.4 | 24.1 | 0.00 | 1.04 | 1.04 | 57 | 1003.5 |
| 20260906170603 | 29 | 213 | 6.4 | 12.9 | 0.00 | 1.04 | 1.04 | 56 | 1003.4 |
| 20260906165558 | 28 | 244 | 4.8 | 14.5 | 0.00 | 1.04 | 1.04 | 56 | 1003.3 |
| 20260906165053 | 28 | 212 | 11.3 | 17.7 | 0.00 | 1.04 | 1.04 | 54 | 1003.3 |
| 20260906164552 | 28 | 200 | 4.8 | 12.9 | 0.00 | 1.04 | 1.04 | 55 | 1003.2 |
| 20260906164048 | 28 | 212 | 4.8 | 12.9 | 0.00 | 1.04 | 1.04 | 56 | 1003.2 |
| 20260906163543 | 27 | 210 | 3.2 | 12.9 | 0.00 | 1.04 | 1.04 | 58 | 1003.3 |
| 20260906163038 | 27 | 200 | 9.7 | 16.1 | 0.00 | 1.04 | 1.04 | 55 | 1003.2 |
| 20260906162535 | 27 | 241 | 9.7 | 17.7 | 0.00 | 1.04 | 1.04 | 55 | 1003.2 |
| 20260906162031 | 27 | 239 | 6.4 | 12.9 | 0.00 | 1.04 | 1.04 | 56 | 1003.2 |
| 20260906161526 | 26 | 208 | 16.1 | 27.4 | 0.00 | 1.04 | 1.04 | 55 | 1003.2 |
| 20260906161025 | 25 | 157 | 8.0 | 20.9 | 0.00 | 1.04 | 1.04 | 61 | 1003.1 |
| 20260906160524 | 25 | 234 | 6.4 | 12.9 | 0.00 | 1.04 | 1.04 | 61 | 1003.4 |
| 20260906160023 | 25 | 92 | 3.2 | 6.4 | 0.00 | 1.04 | 1.04 | 63 | 1003.1 |
| 20260906155521 | 25 | 231 | 0.0 | 3.2 | 0.00 | 1.04 | 1.04 | 66 | 1003.1 |
| 20260906155017 | 25 | 254 | 0.0 | 1.6 | 0.00 | 1.04 | 1.04 | 65 | 1003.4 |
| 20260906154512 | 25 | 187 | 1.6 | 3.2 | 0.00 | 1.04 | 1.04 | 64 | 1003.4 |
| 20260906154010 | 25 | 254 | 1.6 | 3.2 | 0.00 | 1.04 | 1.04 | 64 | 1003.0 |
| 20260906153509 | 25 | 191 | 3.2 | 6.4 | 0.00 | 1.04 | 1.04 | 62 | 1002.9 |
| 20260906153004 | 25 | 222 | 3.2 | 14.5 | 0.00 | 1.04 | 1.04 | 62 | 1003.1 |
| 20260906152459 | 25 | 217 | 3.2 | 17.7 | 0.00 | 1.04 | 1.04 | 63 | 1003.1 |
| 20260906151958 | 25 | 239 | 6.4 | 20.9 | 0.00 | 1.04 | 1.04 | 61 | 1003.0 |
| 20260906151454 | 24 | 242 | 9.7 | 22.5 | 0.00 | 1.04 | 1.04 | 62 | 1002.7 |
| 20260906150949 | 23 | 127 | 9.7 | 22.5 | 0.00 | 1.04 | 1.04 | 65 | 1002.0 |
| 20260906150444 | 23 | 156 | 6.4 | 14.5 | 0.00 | 1.04 | 1.04 | 67 | 1002.3 |
| 20260906145944 | 23 | 133 | 8.0 | 20.9 | 0.00 | 1.04 | 1.04 | 68 | 1002.8 |
| 20260906145443 | 22 | 215 | 9.7 | 24.1 | 0.00 | 1.04 | 1.04 | 71 | 1003.2 |
| 20260906144932 | 22 | 191 | 19.3 | 24.1 | 0.00 | 1.04 | 1.04 | 76 | 1003.5 |
| 20260906144427 | 22 | 161 | 3.2 | 16.1 | 0.00 | 1.04 | 1.04 | 79 | 1003.5 |
| 20260906143923 | 21 | 165 | 6.4 | 22.5 | 0.00 | 1.04 | 1.04 | 81 | 1003.4 |
| 20260906143418 | 21 | 187 | 4.8 | 20.9 | 0.00 | 1.04 | 1.04 | 85 | 1004.2 |
| 20260906142914 | 20 | 246 | 16.1 | 20.9 | 0.00 | 1.04 | 1.04 | 86 | 1004.4 |
| 20260906142414 | 19 | 252 | 14.5 | 30.6 | 0.00 | 1.04 | 1.04 | 99 | 1003.5 |
| 20260906141914 | 19 | 208 | 6.4 | 12.9 | 0.00 | 1.04 | 1.04 | 99 | 1003.4 |
| 20260906141408 | 19 | 208 | 6.4 | 14.5 | 0.00 | 1.04 | 1.04 | 99 | 1004.8 |
| 20260906140908 | 19 | 187 | 9.7 | 20.9 | 0.00 | 1.04 | 1.04 | 99 | 1005.1 |
| 20260906140402 | 19 | 193 | 11.3 | 14.5 | 0.13 | 1.04 | 1.04 | 99 | 1005.5 |
| 20260906135900 | 19 | 196 | 8.0 | 12.9 | 0.30 | 1.04 | 1.04 | 99 | 1005.6 |
| 20260906135354 | 18 | 206 | 8.0 | 12.9 | 0.36 | 1.02 | 1.02 | 99 | 1006.0 |
| 20260906134850 | 18 | 231 | 6.4 | 12.9 | 0.48 | 0.99 | 0.99 | 99 | 1006.3 |
| 20260906134345 | 18 | 202 | 1.6 | 11.3 | 0.61 | 0.97 | 0.97 | 99 | 1006.5 |
| 20260906133841 | 18 | 283 | 1.6 | 9.7 | 0.61 | 0.91 | 0.91 | 99 | 1006.8 |
| 20260906133336 | 19 | 296 | 6.4 | 16.1 | 0.61 | 0.86 | 0.86 | 99 | 1007.1 |
| 20260906132832 | 19 | 255 | 14.5 | 25.7 | 0.43 | 0.81 | 0.81 | 99 | 1006.7 |
| 20260906132326 | 19 | 302 | 11.3 | 17.7 | 0.30 | 0.76 | 0.76 | 99 | 1006.4 |
| 20260906131822 | 19 | 276 | 9.7 | 16.1 | 0.30 | 0.74 | 0.74 | 99 | 1005.9 |
| 20260906131317 | 19 | 306 | 9.7 | 24.1 | 0.13 | 0.71 | 0.71 | 99 | 1005.7 |
| 20260906130813 | 19 | 295 | 12.9 | 20.9 | 0.18 | 0.69 | 0.69 | 99 | 1005.7 |
| 20260906130313 | 19 | 287 | 11.3 | 20.9 | 0.36 | 0.69 | 0.69 | 99 | 1005.7 |
| 20260906125811 | 19 | 299 | 8.0 | 16.1 | 0.48 | 0.66 | 0.66 | 99 | 1006.2 |
| 20260906125306 | 19 | 312 | 1.6 | 6.4 | 0.43 | 0.64 | 0.64 | 99 | 1006.4 |
| 20260906124758 | 19 | 281 | 0.0 | 4.8 | 0.13 | 0.58 | 0.58 | 99 | 1006.6 |
| 20260906124255 | 19 | 320 | 6.4 | 6.4 | 0.18 | 0.56 | 0.56 | 99 | 1006.5 |
| 20260906123753 | 19 | 316 | 6.4 | 12.9 | 0.30 | 0.56 | 0.56 | 99 | 1006.3 |
| 20260906123248 | 19 | 320 | 6.4 | 12.9 | 0.13 | 0.53 | 0.53 | 99 | 1006.5 |
| 20260906122748 | 19 | 315 | 8.0 | 11.3 | 0.18 | 0.51 | 0.51 | 99 | 1006.4 |
| 20260906122243 | 19 | 305 | 8.0 | 11.3 | 0.30 | 0.48 | 0.48 | 99 | 1006.5 |
| 20260906121739 | 19 | 297 | 4.8 | 12.9 | 0.30 | 0.46 | 0.46 | 99 | 1006.3 |
| 20260906121236 | 19 | 344 | 6.4 | 16.1 | 0.30 | 0.43 | 0.43 | 99 | 1006.7 |
| 20260906120731 | 19 | 294 | 4.8 | 11.3 | 0.48 | 0.41 | 0.41 | 99 | 1006.5 |
| 20260906120228 | 19 | 334 | 3.2 | 11.3 | 0.36 | 0.36 | 0.36 | 99 | 1006.2 |
| 20260906115723 | 19 | 310 | 4.8 | 11.3 | 0.30 | 0.33 | 0.33 | 98 | 1005.9 |
| 20260906115218 | 19 | 331 | 16.1 | 20.9 | 0.30 | 0.30 | 0.30 | 98 | 1006.1 |
| 20260906114717 | 20 | 314 | 14.5 | 16.1 | 0.30 | 0.28 | 0.28 | 97 | 1006.2 |
| 20260906114213 | 20 | 317 | 6.4 | 16.1 | 0.71 | 0.25 | 0.25 | 97 | 1006.3 |
| 20260906113708 | 20 | 263 | 8.0 | 22.5 | 0.61 | 0.20 | 0.20 | 96 | 1006.0 |
| 20260906113207 | 20 | 317 | 9.7 | 20.9 | 0.30 | 0.13 | 0.13 | 95 | 1006.2 |
| 20260906112706 | 20 | 275 | 12.9 | 20.9 | 0.43 | 0.10 | 0.10 | 94 | 1006.1 |
| 20260906112203 | 20 | 315 | 9.7 | 20.9 | 0.13 | 0.05 | 0.05 | 93 | 1006.1 |
| 20260906111657 | 20 | 287 | 9.7 | 20.9 | 0.18 | 0.03 | 0.03 | 93 | 1006.2 |
| 20260906111152 | 21 | 294 | 12.9 | 20.9 | 0.18 | 0.03 | 0.03 | 91 | 1006.0 |
| 20260906110647 | 21 | 326 | 11.3 | 22.5 | 0.00 | 0.00 | 0.00 | 89 | 1005.7 |
| 20260906110142 | 21 | 316 | 9.7 | 12.9 | 0.00 | 0.00 | 0.00 | 87 | 1005.6 |
| 20260906105636 | 22 | 295 | 11.3 | 20.9 | 0.00 | 0.00 | 0.00 | 86 | 1005.0 |
| 20260906105133 | 22 | 329 | 17.7 | 27.4 | 0.00 | 0.00 | 0.00 | 85 | 1004.9 |
| 20260906104631 | 22 | 316 | 17.7 | 24.1 | 0.00 | 0.00 | 0.00 | 83 | 1004.8 |
| 20260906104130 | 22 | 320 | 14.5 | 24.1 | 0.00 | 0.00 | 0.00 | 82 | 1004.6 |
| 20260906103629 | 22 | 339 | 12.9 | 17.7 | 0.00 | 0.00 | 0.00 | 82 | 1004.3 |
| 20260906103124 | 23 | 332 | 14.5 | 20.9 | 0.00 | 0.00 | 0.00 | 80 | 1004.1 |
| 20260906102619 | 23 | 333 | 19.3 | 24.1 | 0.00 | 0.00 | 0.00 | 80 | 1004.3 |
| 20260906102114 | 23 | 1 | 12.9 | 22.5 | 0.00 | 0.00 | 0.00 | 79 | 1004.3 |
| 20260906101614 | 23 | 332 | 14.5 | 17.7 | 0.00 | 0.00 | 0.00 | 79 | 1004.3 |
| 20260906101114 | 23 | 350 | 12.9 | 17.7 | 0.00 | 0.00 | 0.00 | 79 | 1004.2 |
| 20260906100610 | 23 | 328 | 14.5 | 22.5 | 0.00 | 0.00 | 0.00 | 79 | 1004.1 |
| 20260906100110 | 24 | 342 | 12.9 | 24.1 | 0.00 | 0.00 | 0.00 | 78 | 1004.0 |
| 20260906095610 | 24 | 314 | 17.7 | 17.7 | 0.00 | 0.00 | 0.00 | 79 | 1004.1 |
| 20260906095105 | 24 | 311 | 11.3 | 14.5 | 0.00 | 0.00 | 0.00 | 83 | 1004.3 |
| 20260906094604 | 23 | 306 | 3.2 | 12.9 | 0.00 | 0.00 | 0.00 | 82 | 1004.0 |
| 20260906094100 | 23 | 288 | 12.9 | 24.1 | 0.00 | 0.00 | 0.00 | 86 | 1004.4 |
| 20260906093556 | 22 | 272 | 0.0 | 0.0 | 0.00 | 0.00 | 0.00 | 88 | 1003.1 |
| 20260906093051 | 22 | 266 | 0.0 | 0.0 | 0.00 | 0.00 | 0.00 | 88 | 1003.0 |
| 20260906092546 | 22 | 268 | 0.0 | 0.0 | 0.00 | 0.00 | 0.00 | 88 | 1002.9 |
| 20260906092041 | 22 | 280 | 0.0 | 0.0 | 0.00 | 0.00 | 0.00 | 87 | 1002.8 |
| 20260906091537 | 22 | 250 | 0.0 | 0.0 | 0.00 | 0.00 | 0.00 | 87 | 1002.9 |
| 20260906091033 | 22 | 256 | 0.0 | 0.0 | 0.00 | 0.00 | 0.00 | 88 | 1002.7 |
| 20260906090533 | 22 | 224 | 0.0 | 0.0 | 0.00 | 0.00 | 0.00 | 88 | 1002.8 |
| 20260906090028 | 22 | 229 | 0.0 | 0.0 | 0.00 | 0.00 | 0.00 | 88 | 1002.7 |
| 20260906085527 | 22 | 258 | 0.0 | 0.0 | 0.00 | 0.00 | 0.00 | 89 | 1002.6 |
| 20260906085027 | 23 | 220 | 0.0 | 0.0 | 0.00 | 0.00 | 0.00 | 88 | 1002.7 |
| 20260906084522 | 23 | 207 | 0.0 | 0.0 | 0.00 | 0.00 | 0.00 | 88 | 1002.6 |
| 20260906084020 | 23 | 202 | 0.0 | 0.0 | 0.00 | 0.00 | 0.00 | 87 | 1002.7 |
| 20260906083517 | 23 | 216 | 0.0 | 0.0 | 0.00 | 0.00 | 0.00 | 86 | 1002.6 |
| 20260906083016 | 23 | 233 | 0.0 | 0.0 | 0.00 | 0.00 | 0.00 | 87 | 1002.6 |
| 20260906082511 | 23 | 239 | 0.0 | 0.0 | 0.00 | 0.00 | 0.00 | 88 | 1002.7 |
| 20260906082007 | 23 | 227 | 0.0 | 0.0 | 0.00 | 0.00 | 0.00 | 89 | 1002.6 |
| 20260906081503 | 23 | 236 | 0.0 | 0.0 | 0.00 | 0.00 | 0.00 | 88 | 1002.5 |
| 20260906080958 | 23 | 252 | 0.0 | 0.0 | 0.00 | 0.00 | 0.00 | 87 | 1002.6 |
| 20260906080455 | 23 | 236 | 0.0 | 0.0 | 0.00 | 0.00 | 0.00 | 87 | 1002.6 |
| 20260906075955 | 23 | 244 | 0.0 | 0.0 | 0.00 | 0.00 | 0.00 | 86 | 1002.8 |
| 20260906075449 | 23 | 235 | 0.0 | 0.0 | 0.00 | 0.00 | 0.00 | 86 | 1002.9 |
| 20260906074944 | 23 | 236 | 0.0 | 0.0 | 0.00 | 0.00 | 0.00 | 86 | 1002.7 |
| 20260906074439 | 23 | 244 | 0.0 | 0.0 | 0.00 | 0.00 | 0.00 | 87 | 1002.9 |
| 20260906073937 | 23 | 249 | 0.0 | 0.0 | 0.00 | 0.00 | 0.00 | 87 | 1002.8 |
| 20260906073432 | 23 | 249 | 0.0 | 0.0 | 0.00 | 0.00 | 0.00 | 87 | 1002.8 |
| 20260906072929 | 23 | 251 | 0.0 | 0.0 | 0.00 | 0.00 | 0.00 | 88 | 1002.9 |
| 20260906072424 | 23 | 250 | 0.0 | 0.0 | 0.00 | 0.00 | 0.00 | 90 | 1002.7 |
| 20260906071919 | 22 | 250 | 0.0 | 0.0 | 0.00 | 0.00 | 0.00 | 92 | 1002.9 |
| 20260906071415 | 22 | 250 | 0.0 | 0.0 | 0.00 | 0.00 | 0.00 | 92 | 1002.8 |
| 20260906070911 | 22 | 250 | 0.0 | 0.0 | 0.00 | 0.00 | 0.00 | 93 | 1003.0 |
| 20260906070406 | 22 | 250 | 0.0 | 0.0 | 0.00 | 0.00 | 0.00 | 93 | 1002.9 |
| 20260906065856 | 22 | 250 | 0.0 | 0.0 | 0.00 | 0.00 | 0.00 | 93 | 1002.8 |
| 20260906065350 | 22 | 250 | 0.0 | 0.0 | 0.00 | 0.00 | 0.00 | 93 | 1003.0 |
| 20260906064846 | 22 | 252 | 0.0 | 0.0 | 0.00 | 0.00 | 0.00 | 93 | 1002.8 |
| 20260906064337 | 22 | 255 | 0.0 | 0.0 | 0.00 | 0.00 | 0.00 | 94 | 1002.8 |
| 20260906063836 | 22 | 255 | 0.0 | 0.0 | 0.00 | 0.00 | 0.00 | 93 | 1002.8 |
| 20260906063332 | 23 | 255 | 0.0 | 0.0 | 0.00 | 0.00 | 0.00 | 93 | 1002.7 |
| 20260906062827 | 23 | 255 | 0.0 | 0.0 | 0.00 | 0.00 | 0.00 | 92 | 1002.8 |
| 20260906062326 | 23 | 256 | 0.0 | 0.0 | 0.00 | 0.00 | 0.00 | 92 | 1002.8 |
| 20260906061821 | 23 | 256 | 0.0 | 0.0 | 0.00 | 0.00 | 0.00 | 91 | 1002.8 |
| 20260906061318 | 23 | 255 | 0.0 | 0.0 | 0.00 | 0.00 | 0.00 | 91 | 1002.6 |
| 20260906060812 | 23 | 252 | 0.0 | 0.0 | 0.00 | 0.00 | 0.00 | 90 | 1002.7 |
| 20260906060310 | 23 | 250 | 0.0 | 0.0 | 0.00 | 0.00 | 0.00 | 90 | 1002.7 |
| 20260906055806 | 23 | 263 | 0.0 | 0.0 | 0.00 | 0.00 | 0.00 | 89 | 1002.7 |
| 20260906055301 | 23 | 249 | 0.0 | 0.0 | 0.00 | 0.00 | 0.00 | 89 | 1002.7 |
| 20260906054756 | 24 | 234 | 0.0 | 0.0 | 0.00 | 0.00 | 0.00 | 89 | 1002.7 |
| 20260906054251 | 24 | 228 | 0.0 | 0.0 | 0.00 | 0.00 | 0.00 | 89 | 1002.8 |
| 20260906053748 | 24 | 232 | 0.0 | 0.0 | 0.00 | 0.00 | 0.00 | 89 | 1002.7 |
| 20260906053243 | 24 | 247 | 0.0 | 0.0 | 0.00 | 0.00 | 0.00 | 89 | 1002.7 |
| 20260906052738 | 23 | 250 | 0.0 | 0.0 | 0.00 | 0.00 | 0.00 | 90 | 1003.0 |
| 20260906052234 | 24 | 252 | 0.0 | 0.0 | 0.00 | 0.00 | 0.00 | 90 | 1002.9 |
| 20260906051731 | 24 | 249 | 0.0 | 0.0 | 0.00 | 0.00 | 0.00 | 90 | 1003.0 |
| 20260906051231 | 24 | 240 | 0.0 | 0.0 | 0.00 | 0.00 | 0.00 | 91 | 1002.9 |
| 20260906050726 | 24 | 250 | 0.0 | 0.0 | 0.00 | 0.00 | 0.00 | 91 | 1003.2 |
| 20260906050221 | 24 | 240 | 0.0 | 0.0 | 0.00 | 0.00 | 0.00 | 90 | 1003.0 |
| 20260906045720 | 23 | 250 | 0.0 | 0.0 | 0.00 | 0.00 | 0.00 | 91 | 1003.2 |
| 20260906045215 | 24 | 251 | 0.0 | 0.0 | 0.00 | 0.00 | 0.00 | 91 | 1002.8 |
| 20260906044711 | 24 | 251 | 0.0 | 0.0 | 0.00 | 0.00 | 0.00 | 91 | 1003.1 |
| 20260906044206 | 24 | 250 | 0.0 | 0.0 | 0.00 | 0.00 | 0.00 | 90 | 1003.1 |
| 20260906043702 | 25 | 255 | 0.0 | 0.0 | 0.00 | 0.00 | 0.00 | 90 | 1002.9 |
| 20260906043157 | 25 | 256 | 0.0 | 0.0 | 0.00 | 0.00 | 0.00 | 89 | 1003.0 |
| 20260906042657 | 25 | 262 | 0.0 | 0.0 | 0.00 | 0.00 | 0.00 | 87 | 1003.1 |
| 20260906042156 | 25 | 271 | 0.0 | 0.0 | 0.00 | 0.00 | 0.00 | 86 | 1003.1 |
| 20260906041652 | 25 | 265 | 0.0 | 0.0 | 0.00 | 0.00 | 0.00 | 85 | 1003.0 |
| 20260906041147 | 26 | 263 | 0.0 | 0.0 | 0.00 | 0.00 | 0.00 | 83 | 1003.1 |
| 20260906040642 | 26 | 286 | 0.0 | 0.0 | 0.00 | 0.00 | 0.00 | 82 | 1002.9 |
| 20260906040138 | 26 | 247 | 0.0 | 0.0 | 0.00 | 0.00 | 0.00 | 82 | 1002.8 |
| 20260906035633 | 26 | 221 | 0.0 | 0.0 | 0.00 | 0.00 | 0.00 | 83 | 1002.9 |
| 20260906035130 | 26 | 243 | 0.0 | 0.0 | 0.00 | 0.00 | 0.00 | 84 | 1002.6 |
| 20260906034629 | 26 | 254 | 0.0 | 0.0 | 0.00 | 0.00 | 0.00 | 85 | 1002.7 |
| 20260906034124 | 25 | 246 | 0.0 | 0.0 | 0.00 | 0.00 | 0.00 | 85 | 1002.7 |
| 20260906033620 | 26 | 250 | 0.0 | 0.0 | 0.00 | 0.00 | 0.00 | 86 | 1002.8 |
| 20260906033114 | 26 | 250 | 0.0 | 0.0 | 0.00 | 0.00 | 0.00 | 85 | 1002.7 |
| 20260906032611 | 26 | 248 | 0.0 | 0.0 | 0.00 | 0.00 | 0.00 | 85 | 1002.7 |
| 20260906032111 | 26 | 257 | 0.0 | 0.0 | 0.00 | 0.00 | 0.00 | 86 | 1002.5 |
| 20260906031606 | 26 | 241 | 0.0 | 0.0 | 0.00 | 0.00 | 0.00 | 85 | 1002.5 |
| 20260906031102 | 26 | 256 | 0.0 | 0.0 | 0.00 | 0.00 | 0.00 | 85 | 1002.4 |
| 20260906030601 | 26 | 256 | 0.0 | 0.0 | 0.00 | 0.00 | 0.00 | 85 | 1002.3 |
| 20260906030055 | 26 | 207 | 0.0 | 0.0 | 0.00 | 0.00 | 0.00 | 84 | 1002.5 |
| 20260906025550 | 26 | 224 | 0.0 | 0.0 | 0.00 | 0.00 | 0.00 | 85 | 1002.4 |
| 20260906025048 | 26 | 232 | 0.0 | 0.0 | 0.00 | 0.00 | 0.00 | 85 | 1002.2 |
| 20260906024543 | 26 | 253 | 0.0 | 0.0 | 0.00 | 0.00 | 0.00 | 85 | 1002.4 |
| 20260906024038 | 26 | 253 | 0.0 | 0.0 | 0.00 | 0.00 | 0.00 | 84 | 1002.3 |
| 20260906023534 | 26 | 250 | 0.0 | 0.0 | 0.00 | 0.00 | 0.00 | 83 | 1002.3 |
| 20260906023029 | 27 | 220 | 0.0 | 0.0 | 0.00 | 0.00 | 0.00 | 83 | 1002.0 |
| 20260906022524 | 26 | 224 | 0.0 | 0.0 | 0.00 | 0.00 | 0.00 | 84 | 1001.9 |
| 20260906022019 | 26 | 256 | 0.0 | 0.0 | 0.00 | 0.00 | 0.00 | 84 | 1002.0 |
| 20260906021514 | 27 | 252 | 0.0 | 0.0 | 0.00 | 0.00 | 0.00 | 84 | 1002.2 |
| 20260906021009 | 27 | 263 | 0.0 | 0.0 | 0.00 | 0.00 | 0.00 | 85 | 1001.7 |
| 20260906020508 | 27 | 255 | 0.0 | 0.0 | 0.00 | 0.00 | 0.00 | 84 | 1001.6 |
| 20260906020008 | 27 | 238 | 0.0 | 0.0 | 0.00 | 0.00 | 0.00 | 84 | 1001.7 |
| 20260906015506 | 27 | 255 | 0.0 | 0.0 | 0.00 | 0.00 | 0.00 | 83 | 1001.7 |
| 20260906015001 | 27 | 261 | 0.0 | 3.2 | 0.00 | 0.00 | 0.00 | 83 | 1001.7 |
| 20260906014501 | 27 | 206 | 0.0 | 0.0 | 0.00 | 0.00 | 0.00 | 84 | 1001.7 |
| 20260906013951 | 27 | 260 | 0.0 | 0.0 | 0.00 | 0.00 | 0.00 | 84 | 1001.7 |
| 20260906013447 | 27 | 267 | 0.0 | 0.0 | 0.00 | 0.00 | 0.00 | 84 | 1001.6 |
| 20260906012942 | 27 | 256 | 0.0 | 0.0 | 0.00 | 0.00 | 0.00 | 84 | 1001.4 |
| 20260906012437 | 27 | 260 | 0.0 | 0.0 | 0.00 | 0.00 | 0.00 | 83 | 1001.4 |
| 20260906011936 | 27 | 268 | 0.0 | 0.0 | 0.00 | 0.00 | 0.00 | 82 | 1001.4 |
| 20260906011432 | 27 | 261 | 0.0 | 0.0 | 0.00 | 0.00 | 0.00 | 82 | 1001.4 |
| 20260906010927 | 28 | 266 | 0.0 | 0.0 | 0.00 | 0.00 | 0.00 | 81 | 1001.4 |
| 20260906010422 | 28 | 269 | 0.0 | 0.0 | 0.00 | 0.00 | 0.00 | 79 | 1001.3 |
| 20260906005919 | 28 | 268 | 0.0 | 0.0 | 0.00 | 0.00 | 0.00 | 79 | 1001.4 |
| 20260906005418 | 28 | 268 | 0.0 | 0.0 | 0.00 | 0.00 | 0.00 | 77 | 1001.3 |
| 20260906004916 | 29 | 278 | 0.0 | 0.0 | 0.00 | 0.00 | 0.00 | 75 | 1001.2 |
| 20260906004411 | 30 | 275 | 0.0 | 0.0 | 0.00 | 0.00 | 0.00 | 73 | 1001.1 |
| 20260906003907 | 30 | 257 | 0.0 | 0.0 | 0.00 | 0.00 | 0.00 | 72 | 1001.3 |
| 20260906003402 | 30 | 215 | 1.6 | 1.6 | 0.00 | 0.00 | 0.00 | 71 | 1001.2 |
| 20260906002857 | 30 | 266 | 0.0 | 0.0 | 0.00 | 0.00 | 0.00 | 70 | 1001.4 |
| 20260906002356 | 31 | 183 | 1.6 | 1.6 | 0.00 | 0.00 | 0.00 | 69 | 1001.4 |
| 20260906001852 | 31 | 263 | 1.6 | 3.2 | 0.00 | 0.00 | 0.00 | 69 | 1001.1 |
| 20260906001348 | 31 | 264 | 0.0 | 1.6 | 0.00 | 0.00 | 0.00 | 69 | 1001.4 |
| 20260906000842 | 31 | 261 | 1.6 | 6.4 | 0.00 | 0.00 | 0.00 | 67 | 1001.1 |
| 20260906000342 | 31 | 171 | 3.2 | 9.7 | 0.00 | 0.00 | 0.00 | 66 | 1001.1 |
| 20260905235837 | 32 | 262 | 0.0 | 3.2 | 0.00 | 0.00 | 0.00 | 66 | 1001.0 |
| 20260905235331 | 32 | 256 | 1.6 | 11.3 | 0.00 | 0.00 | 0.00 | 65 | 1001.0 |
| 20260905234827 | 32 | 195 | 1.6 | 6.4 | 0.00 | 0.00 | 0.00 | 65 | 1001.4 |
| 20260905234322 | 32 | 88 | 0.0 | 6.4 | 0.00 | 0.00 | 0.00 | 65 | 1001.1 |
| 20260905233817 | 32 | 191 | 4.8 | 9.7 | 0.00 | 0.00 | 0.00 | 64 | 1001.0 |
| 20260905233312 | 32 | 193 | 1.6 | 6.4 | 0.00 | 0.00 | 0.00 | 64 | 1000.9 |
| 20260905232811 | 32 | 218 | 1.6 | 3.2 | 0.00 | 0.00 | 0.00 | 64 | 1001.0 |
| 20260905232307 | 32 | 176 | 3.2 | 9.7 | 0.00 | 0.00 | 0.00 | 63 | 1001.0 |
| 20260905231803 | 32 | 148 | 4.8 | 6.4 | 0.00 | 0.00 | 0.00 | 63 | 1000.8 |
| 20260905231258 | 32 | 232 | 3.2 | 11.3 | 0.00 | 0.00 | 0.00 | 63 | 1001.0 |
| 20260905230754 | 32 | 194 | 4.8 | 11.3 | 0.00 | 0.00 | 0.00 | 62 | 1001.0 |
| 20260905230251 | 32 | 170 | 12.9 | 14.5 | 0.00 | 0.00 | 0.00 | 61 | 1001.0 |
| 20260905225746 | 32 | 23 | 3.2 | 6.4 | 0.00 | 0.00 | 0.00 | 64 | 1000.9 |
| 20260905225241 | 32 | 149 | 1.6 | 12.9 | 0.00 | 0.00 | 0.00 | 63 | 1000.9 |
| 20260905224740 | 32 | 164 | 6.4 | 11.3 | 0.00 | 0.00 | 0.00 | 63 | 1000.9 |
| 20260905224236 | 32 | 209 | 4.8 | 9.7 | 0.00 | 0.00 | 0.00 | 63 | 1001.0 |
| 20260905223732 | 32 | 240 | 3.2 | 12.9 | 0.00 | 0.00 | 0.00 | 63 | 1001.2 |
| 20260905223228 | 32 | 120 | 4.8 | 11.3 | 0.00 | 0.00 | 0.00 | 62 | 1001.4 |
| 20260905222724 | 32 | 189 | 4.8 | 12.9 | 0.00 | 0.00 | 0.00 | 63 | 1001.2 |
| 20260905222223 | 32 | 132 | 6.4 | 14.5 | 0.00 | 0.00 | 0.00 | 63 | 1001.3 |
| 20260905221719 | 32 | 196 | 4.8 | 11.3 | 0.00 | 0.00 | 0.00 | 63 | 1001.3 |
| 20260905221216 | 32 | 143 | 9.7 | 24.1 | 0.00 | 0.00 | 0.00 | 64 | 1001.3 |
| 20260905220711 | 32 | 145 | 6.4 | 14.5 | 0.00 | 0.00 | 0.00 | 64 | 1001.4 |
| 20260905220207 | 32 | 156 | 9.7 | 14.5 | 0.00 | 0.00 | 0.00 | 65 | 1001.4 |
| 20260905215706 | 32 | 194 | 6.4 | 12.9 | 0.00 | 0.00 | 0.00 | 64 | 1001.3 |
| 20260905215202 | 32 | 184 | 6.4 | 20.9 | 0.00 | 0.00 | 0.00 | 64 | 1001.4 |
| 20260905214658 | 32 | 89 | 9.7 | 14.5 | 0.00 | 0.00 | 0.00 | 64 | 1001.6 |
| 20260905214153 | 33 | 113 | 3.2 | 11.3 | 0.00 | 0.00 | 0.00 | 64 | 1001.7 |
| 20260905213648 | 32 | 121 | 3.2 | 12.9 | 0.00 | 0.00 | 0.00 | 64 | 1001.7 |
| 20260905213144 | 32 | 23 | 3.2 | 20.9 | 0.00 | 0.00 | 0.00 | 65 | 1001.8 |
| 20260905212639 | 32 | 177 | 4.8 | 11.3 | 0.00 | 0.00 | 0.00 | 67 | 1001.9 |
| 20260905212138 | 32 | 135 | 6.4 | 11.3 | 0.00 | 0.00 | 0.00 | 66 | 1002.0 |
| 20260905211633 | 32 | 117 | 3.2 | 6.4 | 0.00 | 0.00 | 0.00 | 66 | 1002.4 |
| 20260905211129 | 32 | 253 | 6.4 | 11.3 | 0.00 | 0.00 | 0.00 | 66 | 1002.3 |
| 20260905210625 | 32 | 311 | 1.6 | 11.3 | 0.00 | 0.00 | 0.00 | 68 | 1002.3 |
| 20260905210120 | 32 | 177 | 9.7 | 16.1 | 0.00 | 0.00 | 0.00 | 66 | 1002.3 |
| 20260905205618 | 32 | 153 | 8.0 | 14.5 | 0.00 | 0.00 | 0.00 | 67 | 1002.6 |
| 20260905205112 | 32 | 118 | 6.4 | 14.5 | 0.00 | 0.00 | 0.00 | 67 | 1002.6 |
| 20260905204612 | 32 | 42 | 0.0 | 6.4 | 0.00 | 0.00 | 0.00 | 67 | 1002.6 |
| 20260905204107 | 32 | 60 | 14.5 | 24.1 | 0.00 | 0.00 | 0.00 | 66 | 1002.8 |
| 20260905203602 | 31 | 359 | 8.0 | 14.5 | 0.00 | 0.00 | 0.00 | 69 | 1002.6 |
| 20260905203057 | 32 | 169 | 3.2 | 9.7 | 0.00 | 0.00 | 0.00 | 70 | 1002.8 |
| 20260905202552 | 31 | 237 | 0.0 | 6.4 | 0.00 | 0.00 | 0.00 | 69 | 1002.7 |
| 20260905202048 | 32 | 99 | 6.4 | 22.5 | 0.00 | 0.00 | 0.00 | 67 | 1002.7 |
| 20260905201543 | 31 | 121 | 1.6 | 4.8 | 0.00 | 0.00 | 0.00 | 70 | 1002.9 |